createdAt,value
2018-12-03T16:29:13.319Z,24.40
2018-12-03T16:31:43.363Z,24.50
2018-12-03T16:34:12.943Z,24.70
2018-12-03T16:36:42.023Z,24.90
2018-12-03T16:39:11.108Z,25.00
2018-12-03T16:41:40.966Z,25.10
2018-12-03T16:44:10.013Z,25.20
2018-12-03T16:46:39.122Z,25.30
2018-12-03T16:49:08.209Z,25.30
2018-12-03T16:51:37.334Z,25.40
2018-12-03T16:54:07.220Z,25.40
2018-12-03T16:56:36.906Z,25.40
2018-12-03T16:59:06.059Z,25.40
2018-12-03T17:01:35.138Z,25.40
2018-12-03T17:04:04.790Z,25.40
2018-12-03T17:06:34.240Z,25.40
2018-12-03T17:09:06.020Z,25.40
2018-12-03T17:11:35.313Z,25.40
2018-12-03T17:14:04.420Z,25.40
2018-12-03T17:16:33.808Z,25.40
2018-12-03T17:19:02.941Z,25.40
2018-12-03T17:21:43.012Z,25.40
2018-12-03T17:24:17.764Z,25.30
2018-12-03T17:26:47.656Z,25.30
2018-12-03T17:29:17.388Z,25.30
2018-12-03T17:31:47.272Z,25.20
2018-12-03T17:34:16.431Z,25.20
2018-12-03T17:36:45.614Z,25.20
2018-12-03T17:39:15.651Z,25.30
2018-12-03T17:41:44.747Z,25.30
2018-12-03T17:44:13.862Z,25.40
2018-12-03T17:46:42.953Z,25.40
2018-12-03T17:49:12.048Z,25.40
2018-12-03T17:51:42.157Z,25.50
2018-12-03T17:54:12.501Z,25.50
2018-12-03T17:56:42.616Z,25.50
2018-12-03T17:59:11.743Z,25.50
2018-12-03T18:01:41.176Z,25.50
2018-12-03T18:04:14.359Z,25.50
2018-12-03T18:06:44.127Z,25.50
2018-12-03T18:09:13.703Z,25.50
2018-12-03T18:11:42.799Z,25.50
2018-12-03T18:14:11.884Z,25.50
2018-12-03T18:16:41.481Z,25.50
2018-12-03T18:19:10.679Z,25.50
2018-12-03T18:21:39.803Z,25.50
2018-12-03T18:24:10.484Z,25.50
2018-12-03T18:26:39.925Z,25.50
2018-12-03T18:29:09.440Z,25.40
2018-12-03T18:31:38.859Z,25.40
2018-12-03T18:34:08.232Z,25.40
2018-12-03T18:36:38.297Z,25.40
2018-12-03T18:39:08.784Z,25.40
2018-12-03T18:41:37.869Z,25.40
2018-12-03T18:44:07.016Z,25.40
2018-12-03T18:46:36.072Z,25.30
2018-12-03T18:49:24.246Z,25.40
2018-12-03T18:51:55.394Z,25.40
2018-12-03T18:54:25.418Z,25.40
2018-12-03T18:56:55.106Z,25.40
2018-12-03T18:59:24.174Z,25.40
